Time;durP1;ratioP1;P1;durP2;ratioP2;P2;SDS_P1;SDS_P2;PMS_P1;PMS_P2;Temp;Humidity;BMP_temperature;BMP_pressure;BME280_temperature;BME280_humidity;BME280_pressure;Samples;Min_cycle;Max_cycle;Signal;HPM_P1;HPM_P2
2023/04/28 00:10:12;745705.00;2.49;1286.59;0.00;0.00;0.62;;;;;15.60;1.00;;;;;;2270059;61;1382;-86
2023/04/28 00:12:39;317106.00;1.06;547.32;49120.00;0.16;85.66;;;;;16.00;1.00;;;;;;2268403;61;1743;-89
2023/04/28 00:15:08;252381.00;0.84;436.05;0.00;0.00;0.62;;;;;16.20;1.00;;;;;;2268463;61;1919;-89
2023/04/28 00:17:34;127630.00;0.43;221.24;0.00;0.00;0.62;;;;;16.20;1.00;;;;;;2268405;61;996;-89
2023/04/28 00:20:02;227945.00;0.76;394.01;19541.00;0.07;34.48;;;;;16.10;1.00;;;;;;2268302;61;724;-87
2023/04/28 00:22:28;468327.00;1.56;807.31;85243.00;0.28;148.09;;;;;16.00;1.00;;;;;;2268425;61;1367;-87
2023/04/28 00:24:55;375073.00;1.25;646.96;0.00;0.00;0.62;;;;;15.90;1.00;;;;;;2268342;61;1762;-88
2023/04/28 00:27:23;320870.00;1.07;553.79;0.00;0.00;0.62;;;;;15.70;1.00;;;;;;2268348;61;909;-88
2023/04/28 00:29:51;153042.00;0.51;265.05;0.00;0.00;0.62;;;;;15.50;1.00;;;;;;2268380;61;1055;-88
2023/04/28 00:32:19;159621.00;0.53;276.39;0.00;0.00;0.62;;;;;15.60;1.00;;;;;;2268359;61;1347;-89
2023/04/28 00:34:46;272371.00;0.91;470.42;12651.00;0.04;22.54;;;;;15.60;1.00;;;;;;2268283;61;1992;-88
2023/04/28 00:37:13;304502.00;1.02;525.66;48923.00;0.16;85.32;;;;;15.70;1.00;;;;;;2268308;61;930;-88
2023/04/28 00:39:40;119525.00;0.40;207.26;0.00;0.00;0.62;;;;;15.80;1.00;;;;;;2268393;61;1141;-88
2023/04/28 00:42:07;101915.00;0.34;176.88;0.00;0.00;0.62;;;;;15.80;1.00;;;;;;2268240;61;1119;-87
2023/04/28 00:44:35;218733.00;0.73;378.16;0.00;0.00;0.62;;;;;15.70;1.00;;;;;;2268370;61;1119;-88
2023/04/28 00:47:02;163919.00;0.55;283.79;0.00;0.00;0.62;;;;;15.70;1.00;;;;;;2268184;61;1147;-87
2023/04/28 00:49:30;234134.00;0.78;404.66;0.00;0.00;0.62;;;;;15.70;1.00;;;;;;2268246;61;1461;-87
2023/04/28 00:52:02;233707.00;0.78;403.93;0.00;0.00;0.62;;;;;15.90;1.00;;;;;;2268239;61;1649;-87
2023/04/28 00:54:29;221232.00;0.74;382.46;0.00;0.00;0.62;;;;;15.80;1.00;;;;;;2268336;61;2010;-90
2023/04/28 00:56:57;78923.00;0.26;137.18;0.00;0.00;0.62;;;;;15.60;1.00;;;;;;2268200;61;940;-87
2023/04/28 00:59:24;98643.00;0.33;171.23;0.00;0.00;0.62;;;;;15.60;1.00;;;;;;2268306;61;1117;-87
2023/04/28 01:01:52;117234600.00;390.78;65267112.00;0.00;0.00;0.62;;;;;15.50;1.00;;;;;;2268130;61;970;-87
2023/04/28 01:04:21;222364.00;0.74;384.41;0.00;0.00;0.62;;;;;15.60;1.00;;;;;;2268259;61;1358;-88
2023/04/28 01:06:50;563622.00;1.88;971.45;62336.00;0.21;108.51;;;;;15.60;1.00;;;;;;2268249;61;1119;-88
2023/04/28 01:09:18;206430.00;0.69;356.99;0.00;0.00;0.62;;;;;15.50;1.00;;;;;;2268164;61;1277;-86
2023/04/28 01:11:45;82329.00;0.27;143.06;0.00;0.00;0.62;;;;;15.60;1.00;;;;;;2268154;61;1745;-87
2023/04/28 01:14:11;194587.00;0.65;336.61;11255.00;0.04;20.12;;;;;15.80;1.00;;;;;;2268192;61;1345;-87
2023/04/28 01:16:39;166250.00;0.55;287.81;0.00;0.00;0.62;;;;;16.00;1.00;;;;;;2268160;61;2017;-86
2023/04/28 01:19:11;282854.00;0.94;488.44;0.00;0.00;0.62;;;;;16.00;1.00;;;;;;2268205;61;1001;-87
2023/04/28 01:21:38;180731.00;0.60;312.75;0.00;0.00;0.62;;;;;15.70;1.00;;;;;;2268205;61;1037;-88
2023/04/28 01:24:08;286749.00;0.96;495.14;6809.00;0.02;12.42;;;;;15.90;1.00;;;;;;2268180;61;1299;-87
2023/04/28 01:26:35;86491.00;0.29;150.25;0.00;0.00;0.62;;;;;16.00;1.00;;;;;;2268121;61;1084;-89
2023/04/28 01:29:02;62419.00;0.21;108.66;0.00;0.00;0.62;;;;;16.10;1.00;;;;;;2268066;61;1039;-87
2023/04/28 01:31:29;74797.00;0.25;130.05;0.00;0.00;0.62;;;;;15.90;1.00;;;;;;2268163;61;1589;-89
2023/04/28 01:33:56;70222.00;0.23;122.14;0.00;0.00;0.62;;;;;15.90;1.00;;;;;;2268094;61;1297;-87
2023/04/28 01:36:23;121620.00;0.41;210.88;0.00;0.00;0.62;;;;;15.90;1.00;;;;;;2268192;61;2001;-86
2023/04/28 01:38:51;111070.00;0.37;192.68;0.00;0.00;0.62;;;;;15.80;1.00;;;;;;2268177;61;1011;-87
2023/04/28 01:41:20;112315.00;0.37;194.82;0.00;0.00;0.62;;;;;15.80;1.00;;;;;;2268191;61;985;-87
2023/04/28 01:43:46;195583.00;0.65;338.32;0.00;0.00;0.62;;;;;16.10;1.00;;;;;;2268121;61;1629;-87
2023/04/28 01:46:13;210409.00;0.70;363.84;16945.00;0.06;29.98;;;;;16.00;1.00;;;;;;2268225;61;989;-86
2023/04/28 01:48:40;141860.00;0.47;245.78;0.00;0.00;0.62;;;;;15.90;1.00;;;;;;2268123;61;1005;-87
2023/04/28 01:51:07;279949.00;0.93;483.45;63736.00;0.21;110.93;;;;;15.90;1.00;;;;;;2268111;61;1025;-86
2023/04/28 01:53:34;157738.00;0.53;273.14;0.00;0.00;0.62;;;;;16.00;1.00;;;;;;2268012;61;1265;-86
2023/04/28 01:56:01;201716.00;0.67;348.88;0.00;0.00;0.62;;;;;16.10;1.00;;;;;;2268024;61;1919;-86
2023/04/28 01:58:29;338335.00;1.13;583.81;46108.00;0.15;80.45;;;;;16.00;1.00;;;;;;2268062;61;1048;-84
2023/04/28 02:00:56;166470.00;0.55;288.19;0.00;0.00;0.62;;;;;16.20;1.00;;;;;;2267583;61;1765;-88
2023/04/28 02:03:23;308694.00;1.03;532.86;0.00;0.00;0.62;;;;;16.10;1.00;;;;;;2266909;61;1407;-85
2023/04/28 02:05:50;226655.00;0.76;391.79;0.00;0.00;0.62;;;;;16.20;1.00;;;;;;2267885;61;913;-84
2023/04/28 02:08:17;302353.00;1.01;521.96;0.00;0.00;0.62;;;;;16.10;1.00;;;;;;2267967;61;1498;-89
2023/04/28 02:10:45;180748.00;0.60;312.78;0.00;0.00;0.62;;;;;16.10;1.00;;;;;;2268057;61;1141;-87
2023/04/28 02:13:12;532346.00;1.77;917.53;49189.00;0.16;85.78;;;;;16.10;1.00;;;;;;2267963;61;1440;-87
2023/04/28 02:15:42;715452.00;2.38;1234.04;52750.00;0.18;91.94;;;;;16.00;1.00;;;;;;2268009;61;1926;-87
2023/04/28 02:18:09;817611.00;2.73;1411.85;82982.00;0.28;144.19;;;;;16.00;1.00;;;;;;2267999;61;1040;-89
2023/04/28 02:20:36;766277.00;2.55;1322.37;92442.00;0.31;160.52;;;;;16.10;1.00;;;;;;2268017;61;1723;-88
2023/04/28 02:23:03;973191.00;3.24;1685.05;80132.00;0.27;139.27;;;;;16.10;1.00;;;;;;2267925;61;1331;-86
2023/04/28 02:25:29;1056458.00;3.52;1832.73;81494.00;0.27;141.62;;;;;16.10;1.00;;;;;;2267996;61;1671;-86
2023/04/28 02:27:58;1278679.00;4.26;2233.14;183314.00;0.61;317.20;;;;;16.00;1.00;;;;;;2268017;61;1091;-87
2023/04/28 02:30:24;923208.00;3.08;1596.92;57589.00;0.19;100.31;;;;;15.80;1.00;;;;;;2267975;61;1461;-88
2023/04/28 02:32:53;1145978.00;3.82;1992.85;147278.00;0.49;255.12;;;;;15.70;1.00;;;;;;2267913;61;1538;-88
2023/04/28 02:35:20;1585377.00;5.28;2804.82;178524.00;0.60;308.95;;;;;15.80;1.00;;;;;;2267984;61;1997;-88
2023/04/28 02:37:47;862678.00;2.88;1490.66;49709.00;0.17;86.68;;;;;15.70;1.00;;;;;;2267993;61;899;-87
2023/04/28 02:40:14;903015.00;3.01;1561.42;65989.00;0.22;114.83;;;;;15.80;1.00;;;;;;2267927;61;981;-88
2023/04/28 02:42:41;1238925.00;4.13;2160.76;121157.00;0.40;210.08;;;;;15.90;1.00;;;;;;2267981;61;1390;-88
2023/04/28 02:45:08;1208988.00;4.03;2106.48;47738.00;0.16;83.27;;;;;15.80;1.00;;;;;;2268045;61;989;-87
2023/04/28 02:47:35;1258144.00;4.19;2195.71;111580.00;0.37;193.56;;;;;15.90;1.00;;;;;;2267552;61;1012;-86
2023/04/28 02:50:04;1304537.00;4.35;2280.41;77863.00;0.26;135.35;;;;;15.90;1.00;;;;;;2267588;61;1040;-88
2023/04/28 02:52:31;1469854.00;4.90;2586.52;69301.00;0.23;120.55;;;;;15.90;1.00;;;;;;2267910;61;1426;-88
2023/04/28 02:54:58;1020417.00;3.40;1768.67;50048.00;0.17;87.27;;;;;16.10;1.00;;;;;;2268005;61;927;-87
2023/04/28 02:57:25;1719436.00;5.73;3063.25;150103.00;0.50;259.99;;;;;16.10;1.00;;;;;;2267931;61;1997;-89
2023/04/28 02:59:52;1257557.00;4.19;2194.64;180134.00;0.60;311.72;;;;;16.10;1.00;;;;;;2267984;61;1123;-86
2023/04/28 03:02:21;1386381.00;4.62;2431.09;146714.00;0.49;254.14;;;;;16.00;1.00;;;;;;2267854;61;1326;-89
2023/04/28 03:04:48;1413819.00;4.71;2481.98;164012.00;0.55;283.95;;;;;16.00;1.00;;;;;;2268012;61;1111;-89
2023/04/28 03:07:16;1242496.00;4.14;2167.24;167004.00;0.56;289.11;;;;;16.10;1.00;;;;;;2267840;61;1049;-86
2023/04/28 03:09:45;1530914.00;5.10;2701.43;210626.00;0.70;364.21;;;;;15.90;1.00;;;;;;2267860;61;1201;-87
2023/04/28 03:12:11;1245545.00;4.15;2172.79;139374.00;0.46;241.49;;;;;15.90;1.00;;;;;;2267844;61;1284;-87
2023/04/28 03:14:38;1263602.00;4.21;2205.65;124899.00;0.42;216.53;;;;;15.80;1.00;;;;;;2267839;61;1114;-88
2023/04/28 03:17:06;1603177.00;5.34;2838.81;213721.00;0.71;369.54;;;;;15.80;1.00;;;;;;2268409;61;1997;-88
2023/04/28 03:19:33;118828528.00;396.10;67968064.00;201592.00;0.67;348.66;;;;;15.50;1.00;;;;;;2268590;61;1172;-88
2023/04/28 03:22:00;117353024.00;391.18;65465276.00;116925240.00;389.75;64751328.00;;;;;15.20;1.00;;;;;;2268580;61;1087;-88
2023/04/28 03:24:28;439991.00;1.47;758.57;103661.00;0.35;179.89;;;;;15.20;1.00;;;;;;2268618;61;1184;-89
2023/04/28 03:26:55;516066.00;1.72;889.49;87316.00;0.29;151.67;;;;;15.30;1.00;;;;;;2268629;61;1103;-87
2023/04/28 03:29:24;538785.00;1.80;928.63;90785.00;0.30;157.66;;;;;15.20;1.00;;;;;;2268540;61;996;-90
2023/04/28 03:31:51;398187.00;1.33;686.69;96931.00;0.32;168.27;;;;;15.10;1.00;;;;;;2268618;61;1144;-87
2023/04/28 03:34:18;581977.00;1.94;1003.11;86720.00;0.29;150.64;;;;;14.90;1.00;;;;;;2268567;61;1385;-89
2023/04/28 03:36:45;549428.00;1.83;946.97;83318.00;0.28;144.77;;;;;14.90;1.00;;;;;;2268576;61;1984;-86
2023/04/28 03:39:11;408416.00;1.36;704.27;104918.00;0.35;182.06;;;;;14.90;1.00;;;;;;2268433;61;1081;-89
2023/04/28 03:41:40;1034988.00;3.45;1794.54;215596.00;0.72;372.77;;;;;14.80;1.00;;;;;;2268478;61;1055;-88
2023/04/28 03:44:07;469069.00;1.56;808.59;81536.00;0.27;141.69;;;;;14.90;1.00;;;;;;2268538;61;1695;-87
2023/04/28 03:46:34;433544.00;1.45;747.48;108596.00;0.36;188.41;;;;;15.10;1.00;;;;;;2268486;61;1107;-86
2023/04/28 03:49:01;423970.00;1.41;731.02;95820.00;0.32;166.36;;;;;15.10;1.00;;;;;;2268490;61;982;-89
2023/04/28 03:51:29;515194.00;1.72;887.99;98334.00;0.33;170.70;;;;;15.20;1.00;;;;;;2268439;61;1551;-87
2023/04/28 03:53:56;322315.00;1.07;556.28;90632.00;0.30;157.40;;;;;15.30;1.00;;;;;;2268489;61;1390;-88
2023/04/28 03:56:23;420701.00;1.40;725.40;78020.00;0.26;135.62;;;;;15.40;1.00;;;;;;2268491;61;1915;-88
2023/04/28 03:58:51;408993.00;1.36;705.27;90913.00;0.30;157.88;;;;;15.30;1.00;;;;;;2268461;61;1700;-88
2023/04/28 04:01:18;418740.00;1.40;722.02;96820.00;0.32;168.08;;;;;15.20;1.00;;;;;;2268495;61;1139;-88
2023/04/28 04:03:45;393130.00;1.31;678.00;92177.00;0.31;160.07;;;;;15.40;1.00;;;;;;2268449;61;1425;-87
2023/04/28 04:06:12;302894.00;1.01;522.89;93944.00;0.31;163.12;;;;;15.60;1.00;;;;;;2268347;61;1518;-90
2023/04/28 04:08:39;252641.00;0.84;436.49;90494.00;0.30;157.16;;;;;15.80;1.00;;;;;;2268356;61;1040;-88
2023/04/28 04:11:06;76206.00;0.25;132.48;0.00;0.00;0.62;;;;;15.90;1.00;;;;;;2268477;61;948;-87
2023/04/28 04:13:33;155385.00;0.52;269.09;0.00;0.00;0.62;;;;;16.00;1.00;;;;;;2268371;61;1361;-88
2023/04/28 04:16:01;121854.00;0.41;211.28;0.00;0.00;0.62;;;;;16.20;1.00;;;;;;2268331;61;1924;-87
2023/04/28 04:18:28;80939.00;0.27;140.66;0.00;0.00;0.62;;;;;16.10;1.00;;;;;;2268398;61;1104;-88
2023/04/28 04:20:56;95492.00;0.32;165.79;0.00;0.00;0.62;;;;;16.00;1.00;;;;;;2268044;61;1173;-88
2023/04/28 04:23:23;308140.00;1.03;531.91;0.00;0.00;0.62;;;;;16.00;1.00;;;;;;2268368;61;1402;-89
2023/04/28 04:25:50;306030.00;1.02;528.29;0.00;0.00;0.62;;;;;16.10;1.00;;;;;;2268312;61;992;-89
2023/04/28 04:28:17;183564.00;0.61;317.63;0.00;0.00;0.62;;;;;16.10;1.00;;;;;;2268307;61;1957;-87
2023/04/28 04:30:44;138388.00;0.46;239.79;0.00;0.00;0.62;;;;;16.10;1.00;;;;;;2268325;61;2004;-87
2023/04/28 04:33:12;164937.00;0.55;285.54;0.00;0.00;0.62;;;;;16.10;1.00;;;;;;2268229;61;1275;-88
2023/04/28 04:35:39;274121.00;0.91;473.43;0.00;0.00;0.62;;;;;16.10;1.00;;;;;;2268306;61;1920;-89
2023/04/28 04:48:04;632379.00;2.11;1090.16;0.00;0.00;0.62;;;;;16.60;1.00;;;;;;2274973;61;1307;-90
2023/04/28 04:53:03;580630.00;1.94;1000.79;11135.00;0.04;19.92;;;;;16.60;1.00;;;;;;2514310;40;3449;31
2023/04/28 04:58:01;487898.00;1.63;840.99;25854.00;0.09;45.41;;;;;16.50;1.00;;;;;;2512260;40;3382;31
2023/04/28 06:02:48;520553.00;1.74;897.22;0.00;0.00;0.62;;;;;16.70;1.00;;;;;;2510915;55;3605;31
2023/04/28 06:12:46;442547.00;1.48;762.96;0.00;0.00;0.62;;;;;16.50;1.00;;;;;;2511139;55;3567;31
2023/04/28 06:18:06;734857.00;2.45;1267.74;0.00;0.00;0.62;;;;;16.90;1.00;;;;;;2510834;55;3643;31
2023/04/28 06:25:31;639008.00;2.13;1101.62;103804.00;0.35;180.14;;;;;17.50;1.00;;;;;;2510670;55;3558;31
2023/04/28 07:06:06;818589.00;2.73;1413.56;13200.00;0.04;23.49;;;;;18.10;1.00;;;;;;2270140;61;952;-90
2023/04/28 09:35:44;671487.00;2.24;1157.83;0.00;0.00;0.62;;;;;18.70;1.00;;;;;;2274504;61;1001;-91
2023/04/28 10:30:36;561145.00;1.87;967.17;0.00;0.00;0.62;;;;;20.50;1.00;;;;;;2088896;55;3594;-89
2023/04/28 10:33:22;266019.00;0.89;459.50;0.00;0.00;0.62;;;;;20.60;1.00;;;;;;2276706;61;1746;-89
2023/04/28 11:14:15;1224782.00;4.08;2135.09;44319.00;0.15;77.36;;;;;22.00;1.00;;;;;;2266148;61;1339;-89
2023/04/28 11:19:20;1240007.00;4.13;2162.72;175543.00;0.59;303.81;;;;;21.90;1.00;;;;;;2274053;61;1332;-89
2023/04/28 11:21:48;1097665.00;3.66;1906.25;115892.00;0.39;201.00;;;;;21.80;1.00;;;;;;2272659;61;1610;-91
2023/04/28 11:24:14;1345021.00;4.48;2354.74;243082.00;0.81;420.05;;;;;22.00;1.00;;;;;;2272603;61;1235;-90
2023/04/28 11:26:42;879050.00;2.93;1519.35;51344.00;0.17;89.51;;;;;21.80;1.00;;;;;;2272635;61;837;-90
2023/04/28 11:34:06;1228751.00;4.10;2142.29;159984.00;0.53;277.01;;;;;22.00;1.00;;;;;;2276407;55;3760;-88
2023/04/28 11:39:06;1444376.00;4.81;2538.88;63569.00;0.21;110.65;;;;;21.60;1.00;;;;;;2275305;61;1332;-88
2023/04/28 11:44:18;1266347.00;4.22;2210.65;127184.00;0.42;220.47;;;;;21.80;1.00;;;;;;2275004;61;1333;-89
2023/04/28 11:49:18;1191157.00;3.97;2074.24;111560.00;0.37;193.52;;;;;22.10;1.00;;;;;;2270723;61;1316;-89
2023/04/28 11:51:47;686078.00;2.29;1183.10;101669.00;0.34;176.45;;;;;22.20;1.00;;;;;;2269149;61;1019;-87
2023/04/28 11:54:21;726195.00;2.42;1252.69;75186.00;0.25;130.72;;;;;22.20;1.00;;;;;;2269189;61;1729;-89
2023/04/28 12:01:58;221523.00;0.74;382.96;0.00;0.00;0.62;;;;;21.90;1.00;;;;;;2297278;55;3658;-90
2023/04/28 12:07:05;520585.00;1.74;897.27;20115.00;0.07;35.47;;;;;22.00;1.00;;;;;;2274011;61;1231;-89
2023/04/28 12:09:35;65079.00;0.22;113.26;0.00;0.00;0.62;;;;;21.90;1.00;;;;;;2294954;40;3761;-88
2023/04/28 12:17:01;442752.00;1.48;763.32;0.00;0.00;0.62;;;;;22.00;1.00;;;;;;2277392;56;3608;-88
2023/04/28 12:19:28;385822.00;1.29;665.43;0.00;0.00;0.62;;;;;21.90;1.00;;;;;;2268452;61;1005;-90
2023/04/28 12:22:05;902384.00;3.01;1560.31;62029.00;0.21;107.98;;;;;21.90;1.00;;;;;;2287320;39;3624;-88
2023/04/28 12:29:45;401519.00;1.34;692.42;84799.00;0.28;147.33;;;;;21.90;1.00;;;;;;2270321;61;1086;-89
2023/04/28 12:32:12;339220.00;1.13;585.33;87138.00;0.29;151.37;;;;;22.10;1.00;;;;;;2288068;55;3757;-90
2023/04/28 12:37:15;701155.00;2.34;1209.24;83780.00;0.28;145.57;;;;;22.70;1.00;;;;;;2321468;40;3502;-89
2023/04/28 12:42:16;811664.00;2.71;1401.47;84636.00;0.28;147.04;;;;;22.60;1.00;;;;;;2430046;40;3639;-86
2023/04/28 12:49:42;419217.00;1.40;722.84;90116.00;0.30;156.51;;;;;21.80;1.00;;;;;;2285347;40;3667;-89
2023/04/28 13:04:37;866477.00;2.89;1497.32;129801.00;0.43;224.99;;;;;21.70;1.00;;;;;;2266471;61;1354;-90
2023/04/28 13:12:09;675662.00;2.25;1165.06;94151.00;0.31;163.47;;;;;21.90;1.00;;;;;;2289695;40;3543;-89
2023/04/28 13:14:36;450449.00;1.50;776.55;100051.00;0.33;173.66;;;;;22.00;1.00;;;;;;2268140;61;1743;-87
2023/04/28 13:37:00;813588.00;2.71;1404.83;108664.00;0.36;188.52;;;;;21.50;1.00;;;;;;2269621;61;1958;-90
2023/04/28 13:46:55;120974632.00;403.25;71721096.00;210813.00;0.70;364.53;;;;;21.20;1.00;;;;;;2348755;39;3693;-87
2023/04/28 14:01:48;845207.00;2.82;1460.08;83862.00;0.28;145.71;;;;;21.30;1.00;;;;;;2274274;61;1303;-88
2023/04/28 14:06:44;120075512.00;400.25;70132344.00;89141.00;0.30;154.82;;;;;21.10;1.00;;;;;;2336831;40;3717;-85
2023/04/28 14:09:11;469103.00;1.56;808.65;71511.00;0.24;124.37;;;;;21.00;1.00;;;;;;2277520;61;1411;-90
2023/04/28 14:11:38;248669.00;0.83;429.66;89052.00;0.30;154.67;;;;;21.10;1.00;;;;;;2276124;61;1139;-87
2023/04/28 14:14:05;245365.00;0.82;423.98;74035.00;0.25;128.73;;;;;21.40;1.00;;;;;;2276006;61;1399;-88
2023/04/28 14:57:01;960555.00;3.20;1662.73;53121.00;0.18;92.58;;;;;19.80;1.00;;;;;;2274000;61;1879;-92
2023/04/28 15:47:42;1266666.00;4.22;2211.23;172713.00;0.58;298.94;;;;;19.70;2.80;;;;;;1683945;55;3571;-89
2023/04/28 16:15:30;1522152.00;5.07;2684.87;115370.00;0.38;200.10;;;;;20.10;2.10;;;;;;2515714;55;3581;31
2023/04/28 16:48:02;753294.00;2.51;1299.79;22799.00;0.08;40.12;;;;;20.80;1.00;;;;;;2278984;61;1307;-90
2023/04/28 20:56:41;738265.00;2.46;1273.66;92936.00;0.31;161.38;;;;;18.80;1.00;;;;;;2270375;61;990;-90
2023/04/28 21:01:37;735651.00;2.45;1269.12;91510.00;0.31;158.91;;;;;18.70;1.20;;;;;;2274791;61;1307;-90
2023/04/28 21:14:08;853799.00;2.85;1475.12;159387.00;0.53;275.98;;;;;18.50;1.00;;;;;;2266274;61;1215;-92
2023/04/28 21:16:35;1116786.00;3.72;1940.47;127039.00;0.42;220.22;;;;;18.30;2.10;;;;;;2264116;61;1091;-89
2023/04/28 23:06:52;1395888.00;4.65;2448.70;154455.00;0.51;267.48;;;;;17.60;1.60;;;;;;2266546;61;1005;-90
